Time;durP1;ratioP1;P1;durP2;ratioP2;P2;SDS_P1;SDS_P2;PMS_P1;PMS_P2;Temp;Humidity;BMP_temperature;BMP_pressure;BME280_temperature;BME280_humidity;BME280_pressure;Samples;Min_cycle;Max_cycle;Signal;HPM_P1;HPM_P2
2023/10/01 00:04:39;;;;;;;5.70;3.20;;;;;;;;;;5048581;22;20080;-57
2023/10/01 00:07:06;;;;;;;5.25;3.40;;;;;;;;;;5044546;28;20474;-57
2023/10/01 00:09:31;;;;;;;5.50;3.45;;;;;;;;;;5028089;28;20055;-57
2023/10/01 00:11:57;;;;;;;6.65;3.33;;;;;;;;;;5060320;22;20421;-57
2023/10/01 00:14:22;;;;;;;5.30;3.30;;;;;;;;;;5049788;28;20481;-57
2023/10/01 00:16:48;;;;;;;7.45;3.50;;;;;;;;;;5046295;28;20525;-55
2023/10/01 00:19:15;;;;;;;6.55;3.30;;;;;;;;;;5044465;28;20543;-55
2023/10/01 00:21:40;;;;;;;5.50;3.00;;;;;;;;;;5045823;28;20261;-55
2023/10/01 00:24:05;;;;;;;5.43;3.30;;;;;;;;;;5070710;22;20129;-61
2023/10/01 00:26:31;;;;;;;6.07;3.38;;;;;;;;;;5004029;28;20056;-59
2023/10/01 00:28:56;;;;;;;5.25;3.35;;;;;;;;;;5005616;28;20394;-60
2023/10/01 00:31:22;;;;;;;6.80;3.95;;;;;;;;;;5005009;28;20042;-60
2023/10/01 00:33:47;;;;;;;5.32;3.38;;;;;;;;;;5003563;28;20076;-59
2023/10/01 00:36:13;;;;;;;5.57;3.40;;;;;;;;;;5002664;28;20096;-59
2023/10/01 00:38:38;;;;;;;6.47;3.35;;;;;;;;;;5003876;28;20037;-61
2023/10/01 00:41:04;;;;;;;4.45;3.17;;;;;;;;;;5005283;28;20477;-60
2023/10/01 00:43:30;;;;;;;4.80;3.47;;;;;;;;;;5030792;22;20049;-57
2023/10/01 00:45:56;;;;;;;4.68;3.58;;;;;;;;;;5025339;28;20477;-58
2023/10/01 00:48:22;;;;;;;7.18;3.75;;;;;;;;;;5028863;28;20071;-57
2023/10/01 00:50:47;;;;;;;5.35;3.75;;;;;;;;;;5039403;28;20052;-58
2023/10/01 00:53:13;;;;;;;6.57;3.60;;;;;;;;;;5031135;28;20506;-57
2023/10/01 00:55:39;;;;;;;4.97;3.27;;;;;;;;;;5033038;28;20033;-57
2023/10/01 00:58:04;;;;;;;6.25;3.55;;;;;;;;;;5060815;28;20266;-58
2023/10/01 01:00:30;;;;;;;7.35;3.40;;;;;;;;;;5060368;28;20048;-56
2023/10/01 01:03:00;;;;;;;7.22;3.70;;;;;;;;;;5059773;28;20338;-59
2023/10/01 01:05:34;;;;;;;5.32;3.72;;;;;;;;;;5035777;28;20418;-57
2023/10/01 01:08:02;;;;;;;6.53;3.78;;;;;;;;;;5040915;28;20037;-56
2023/10/01 01:10:31;;;;;;;5.53;3.55;;;;;;;;;;5040865;28;20086;-57
2023/10/01 01:12:58;;;;;;;5.50;3.53;;;;;;;;;;5035563;28;20119;-59
2023/10/01 01:15:23;;;;;;;5.30;3.13;;;;;;;;;;5028261;28;20029;-59
2023/10/01 01:17:50;;;;;;;7.47;3.85;;;;;;;;;;5038187;28;20029;-58
2023/10/01 01:20:16;;;;;;;5.60;3.63;;;;;;;;;;5039247;28;20048;-58
2023/10/01 01:22:51;;;;;;;6.55;3.15;;;;;;;;;;5037266;28;20045;-58
2023/10/01 01:25:20;;;;;;;6.30;3.55;;;;;;;;;;5037368;28;20440;-58
2023/10/01 01:27:46;;;;;;;6.85;3.90;;;;;;;;;;5046788;28;20543;-56
2023/10/01 01:30:17;;;;;;;7.32;4.40;;;;;;;;;;5059251;28;20028;-57
2023/10/01 01:32:42;;;;;;;5.32;3.50;;;;;;;;;;5058072;28;20132;-57
2023/10/01 01:35:10;;;;;;;7.43;4.00;;;;;;;;;;5034013;28;20113;-58
2023/10/01 01:37:46;;;;;;;7.10;4.40;;;;;;;;;;5037708;28;20037;-57
2023/10/01 01:40:24;;;;;;;7.85;4.28;;;;;;;;;;5039640;28;20114;-58
2023/10/01 01:42:51;;;;;;;9.80;5.32;;;;;;;;;;5048552;28;20122;-58
2023/10/01 01:45:19;;;;;;;7.50;4.65;;;;;;;;;;5045149;28;20061;-58
2023/10/01 01:47:44;;;;;;;8.73;4.82;;;;;;;;;;5034225;28;20033;-57
2023/10/01 01:50:19;;;;;;;9.93;4.65;;;;;;;;;;5036581;28;20517;-58
2023/10/01 01:52:47;;;;;;;12.50;4.47;;;;;;;;;;5034120;28;20095;-57
2023/10/01 01:55:23;;;;;;;7.63;4.68;;;;;;;;;;5022041;28;20467;-57
2023/10/01 01:58:02;;;;;;;9.45;4.82;;;;;;;;;;5037080;28;20041;-58
2023/10/01 02:00:27;;;;;;;7.57;4.78;;;;;;;;;;5039968;28;20251;-58
2023/10/01 02:02:59;;;;;;;7.55;4.88;;;;;;;;;;5050542;28;20064;-57
2023/10/01 02:05:28;;;;;;;8.73;4.95;;;;;;;;;;5033183;28;20112;-58
2023/10/01 02:07:53;;;;;;;8.23;4.53;;;;;;;;;;5036015;28;20094;-57
2023/10/01 02:10:20;;;;;;;8.50;4.90;;;;;;;;;;5039445;28;20033;-57
2023/10/01 02:12:47;;;;;;;9.43;4.47;;;;;;;;;;5048132;28;20041;-57
2023/10/01 02:15:13;;;;;;;9.32;4.90;;;;;;;;;;5046503;28;20036;-57
2023/10/01 02:17:39;;;;;;;8.50;4.60;;;;;;;;;;5038138;28;20501;-57
2023/10/01 02:20:21;;;;;;;7.45;4.68;;;;;;;;;;5046894;28;20409;-57
2023/10/01 02:22:47;;;;;;;9.38;4.57;;;;;;;;;;5061367;28;20143;-58
2023/10/01 02:25:12;;;;;;;10.45;4.70;;;;;;;;;;5043811;28;20159;-59
2023/10/01 02:27:47;;;;;;;8.60;4.97;;;;;;;;;;5040450;28;20078;-58
2023/10/01 02:30:16;;;;;;;9.32;4.95;;;;;;;;;;5042992;28;20698;-57
2023/10/01 02:33:15;;;;;;;8.57;4.70;;;;;;;;;;5050666;28;20420;-57
2023/10/01 02:35:35;;;;;;;7.93;4.57;;;;;;;;;;5038269;28;20535;-59
2023/10/01 02:38:04;;;;;;;9.00;4.60;;;;;;;;;;5052908;28;20119;-58
2023/10/01 02:40:36;;;;;;;8.43;5.00;;;;;;;;;;5062256;28;20639;-58
2023/10/01 02:43:05;;;;;;;8.93;4.55;;;;;;;;;;5061785;28;20044;-56
2023/10/01 02:45:31;;;;;;;7.82;5.10;;;;;;;;;;5039404;28;20064;-58
2023/10/01 02:50:45;;;;;;;8.23;4.82;;;;;;;;;;5032678;28;20068;-58
2023/10/01 02:53:10;;;;;;;7.28;4.63;;;;;;;;;;5043461;28;20041;-58
2023/10/01 02:55:41;;;;;;;8.48;4.80;;;;;;;;;;5034920;28;20585;-59
2023/10/01 02:58:17;;;;;;;6.13;4.63;;;;;;;;;;5030317;28;20033;-58
2023/10/01 03:00:43;;;;;;;8.52;4.80;;;;;;;;;;5038045;28;20448;-58
2023/10/01 03:03:14;;;;;;;8.40;5.20;;;;;;;;;;5041766;28;20033;-58
2023/10/01 03:05:42;;;;;;;7.20;4.53;;;;;;;;;;5039700;28;20075;-56
2023/10/01 03:08:11;;;;;;;8.45;4.90;;;;;;;;;;5040906;28;20041;-58
2023/10/01 03:10:38;;;;;;;6.68;4.55;;;;;;;;;;5040425;28;20033;-59
2023/10/01 03:13:15;;;;;;;8.73;5.35;;;;;;;;;;5043551;28;20501;-59
2023/10/01 03:15:41;;;;;;;10.02;4.85;;;;;;;;;;5035049;28;20063;-58
2023/10/01 03:18:34;;;;;;;9.30;4.55;;;;;;;;;;5035286;28;20041;-59
2023/10/01 03:26:05;;;;;;;11.07;4.90;;;;;;;;;;5040928;28;20406;-59
2023/10/01 03:29:13;;;;;;;9.05;4.60;;;;;;;;;;5037395;28;20067;-58
2023/10/01 03:31:20;;;;;;;10.57;5.30;;;;;;;;;;5039943;28;20603;-62
2023/10/01 03:33:45;;;;;;;10.13;4.70;;;;;;;;;;5043547;28;20035;-58
2023/10/01 03:36:12;;;;;;;9.63;5.28;;;;;;;;;;5041229;28;20420;-56
2023/10/01 03:38:37;;;;;;;6.97;4.55;;;;;;;;;;5039122;28;20021;-56
2023/10/01 03:41:08;;;;;;;10.23;4.70;;;;;;;;;;5052780;28;20041;-56
2023/10/01 03:43:36;;;;;;;8.98;4.55;;;;;;;;;;5055887;28;20033;-56
2023/10/01 03:46:13;;;;;;;7.13;4.63;;;;;;;;;;5031425;28;20128;-57
2023/10/01 03:48:57;;;;;;;8.13;4.97;;;;;;;;;;5030309;28;20056;-58
2023/10/01 03:51:29;;;;;;;12.23;5.25;;;;;;;;;;5038860;28;20124;-58
2023/10/01 03:54:06;;;;;;;9.43;4.68;;;;;;;;;;5039311;28;20120;-57
2023/10/01 03:56:33;;;;;;;9.57;5.05;;;;;;;;;;5040004;28;20119;-57
2023/10/01 03:58:58;;;;;;;10.52;4.95;;;;;;;;;;5037639;28;20071;-58
2023/10/01 04:01:33;;;;;;;6.57;4.60;;;;;;;;;;5025642;28;20041;-57
2023/10/01 04:04:01;;;;;;;10.00;4.85;;;;;;;;;;5038419;28;20056;-57
2023/10/01 04:06:27;;;;;;;9.57;5.00;;;;;;;;;;5039460;28;20043;-58
2023/10/01 04:08:55;;;;;;;5.28;4.25;;;;;;;;;;5038983;28;20041;-57
2023/10/01 04:11:41;;;;;;;8.73;4.80;;;;;;;;;;5039421;28;20033;-57
2023/10/01 04:14:10;;;;;;;7.70;4.88;;;;;;;;;;5039604;28;20095;-57
2023/10/01 04:16:36;;;;;;;6.90;4.75;;;;;;;;;;5039819;28;20072;-58
2023/10/01 04:19:03;;;;;;;8.77;4.85;;;;;;;;;;5038566;28;20068;-58
2023/10/01 04:21:28;;;;;;;9.32;4.63;;;;;;;;;;5039026;28;20037;-57
2023/10/01 04:23:54;;;;;;;6.43;4.53;;;;;;;;;;5040593;28;20512;-57
2023/10/01 04:26:20;;;;;;;8.55;5.05;;;;;;;;;;5039308;28;20124;-57
2023/10/01 04:28:50;;;;;;;10.75;5.18;;;;;;;;;;5038495;28;20191;-58
2023/10/01 04:31:19;;;;;;;10.05;4.93;;;;;;;;;;5039739;28;20074;-57
2023/10/01 04:33:49;;;;;;;7.43;4.97;;;;;;;;;;5039901;28;20033;-57
2023/10/01 04:36:18;;;;;;;7.80;4.93;;;;;;;;;;5043536;28;20119;-57
2023/10/01 04:38:45;;;;;;;12.52;5.85;;;;;;;;;;5032390;28;20048;-57
2023/10/01 04:41:16;;;;;;;8.85;5.00;;;;;;;;;;5060684;28;20098;-57
2023/10/01 04:43:51;;;;;;;7.57;5.15;;;;;;;;;;5042554;28;20148;-57
2023/10/01 04:46:18;;;;;;;9.50;5.60;;;;;;;;;;5035075;28;20147;-57
2023/10/01 04:48:45;;;;;;;7.82;5.07;;;;;;;;;;5034311;28;20112;-56
2023/10/01 04:51:12;;;;;;;7.80;4.82;;;;;;;;;;5039501;28;20040;-57
2023/10/01 04:53:39;;;;;;;9.43;5.22;;;;;;;;;;5039705;28;20060;-57
2023/10/01 04:56:05;;;;;;;7.65;4.93;;;;;;;;;;5044828;28;20067;-56
2023/10/01 04:58:41;;;;;;;10.63;5.03;;;;;;;;;;5024064;28;20025;-57
2023/10/01 05:01:12;;;;;;;8.45;4.70;;;;;;;;;;5036739;28;20098;-59
2023/10/01 05:03:40;;;;;;;8.73;5.10;;;;;;;;;;5040618;28;20044;-58
2023/10/01 05:06:12;;;;;;;7.60;4.75;;;;;;;;;;5052242;28;20028;-59
2023/10/01 05:08:38;;;;;;;5.35;4.18;;;;;;;;;;5024263;28;20068;-58
2023/10/01 05:11:04;;;;;;;6.70;4.35;;;;;;;;;;5055075;28;20063;-58
2023/10/01 05:13:31;;;;;;;10.38;4.85;;;;;;;;;;5047250;28;20489;-59
2023/10/01 05:15:56;;;;;;;10.55;4.68;;;;;;;;;;5036712;28;20814;-58
2023/10/01 05:18:27;;;;;;;9.07;4.90;;;;;;;;;;5037206;28;20029;-58
2023/10/01 05:20:58;;;;;;;9.15;4.78;;;;;;;;;;5039223;28;20528;-58
2023/10/01 05:23:24;;;;;;;7.40;4.93;;;;;;;;;;5039084;28;20489;-59
2023/10/01 05:25:50;;;;;;;9.18;4.30;;;;;;;;;;5049711;28;20215;-58
2023/10/01 05:28:31;;;;;;;9.10;4.40;;;;;;;;;;5034927;28;20032;-58
2023/10/01 05:30:58;;;;;;;7.75;4.63;;;;;;;;;;5038064;28;20083;-58
2023/10/01 05:33:24;;;;;;;9.25;5.00;;;;;;;;;;5038855;28;20034;-58
2023/10/01 05:35:52;;;;;;;8.02;4.47;;;;;;;;;;5049576;28;20530;-58
2023/10/01 05:38:19;;;;;;;8.02;5.18;;;;;;;;;;5022010;28;20420;-58
2023/10/01 05:40:44;;;;;;;8.20;4.80;;;;;;;;;;5038088;28;20166;-58
2023/10/01 05:43:13;;;;;;;7.47;5.03;;;;;;;;;;5038602;28;20041;-58
2023/10/01 05:45:52;;;;;;;7.05;4.55;;;;;;;;;;5054579;28;20884;-58
2023/10/01 05:48:23;;;;;;;8.63;4.72;;;;;;;;;;5025573;28;20076;-58
2023/10/01 05:50:49;;;;;;;9.18;4.50;;;;;;;;;;5034924;28;20037;-58
2023/10/01 05:53:14;;;;;;;8.15;4.50;;;;;;;;;;5037186;28;20383;-56
2023/10/01 05:55:40;;;;;;;6.97;4.95;;;;;;;;;;5054223;28;20062;-56
2023/10/01 05:58:16;;;;;;;7.85;4.78;;;;;;;;;;5042201;28;20556;-58
2023/10/01 06:03:30;;;;;;;10.05;4.63;;;;;;;;;;5015812;28;20406;-60
2023/10/01 06:05:58;;;;;;;8.80;4.93;;;;;;;;;;4998507;28;20079;-60
2023/10/01 06:08:32;;;;;;;7.25;4.63;;;;;;;;;;5015386;28;20033;-61
2023/10/01 06:11:06;;;;;;;8.77;4.85;;;;;;;;;;5010683;28;20112;-60
2023/10/01 06:13:33;;;;;;;8.45;4.65;;;;;;;;;;5020739;28;20863;-62
2023/10/01 06:15:58;;;;;;;8.23;4.38;;;;;;;;;;4996163;28;20125;-60
2023/10/01 06:18:24;;;;;;;9.57;4.53;;;;;;;;;;5014963;28;21577;-61
2023/10/01 06:20:53;;;;;;;6.15;4.25;;;;;;;;;;5059903;22;20045;-59
2023/10/01 06:23:19;;;;;;;10.50;4.88;;;;;;;;;;5048663;28;20027;-59
2023/10/01 06:25:51;;;;;;;7.68;4.80;;;;;;;;;;5047273;28;20112;-59
2023/10/01 06:28:20;;;;;;;8.00;4.32;;;;;;;;;;5041813;28;20029;-59
2023/10/01 06:30:45;;;;;;;7.35;4.50;;;;;;;;;;5034012;28;20045;-58
2023/10/01 06:33:24;;;;;;;7.68;4.65;;;;;;;;;;5033967;28;20037;-58
2023/10/01 06:36:15;;;;;;;7.30;4.87;;;;;;;;;;5031975;28;20033;-58
2023/10/01 06:38:41;;;;;;;7.22;4.75;;;;;;;;;;5032599;28;20033;-60
2023/10/01 06:41:13;;;;;;;10.50;5.00;;;;;;;;;;5034605;28;20373;-60
2023/10/01 06:43:48;;;;;;;7.38;4.80;;;;;;;;;;5037618;28;20033;-61
2023/10/01 06:46:13;;;;;;;11.02;4.97;;;;;;;;;;5033294;28;20029;-60
2023/10/01 06:48:40;;;;;;;11.43;4.93;;;;;;;;;;5031377;28;20650;-60
2023/10/01 06:51:05;;;;;;;8.27;4.53;;;;;;;;;;5035921;28;20045;-60
2023/10/01 06:53:45;;;;;;;11.65;4.80;;;;;;;;;;5032677;28;20487;-60
2023/10/01 06:56:10;;;;;;;8.80;4.93;;;;;;;;;;5031669;28;20033;-61
2023/10/01 06:58:35;;;;;;;9.55;5.55;;;;;;;;;;5036429;28;20185;-61
2023/10/01 07:01:02;;;;;;;8.30;4.53;;;;;;;;;;5033074;28;20087;-61
2023/10/01 07:03:30;;;;;;;8.48;5.20;;;;;;;;;;5032696;28;20466;-60
2023/10/01 07:06:01;;;;;;;10.48;5.32;;;;;;;;;;5028667;28;20036;-60
2023/10/01 07:08:43;;;;;;;8.65;5.47;;;;;;;;;;5030535;28;20416;-60
2023/10/01 07:11:17;;;;;;;8.77;5.45;;;;;;;;;;5034388;28;20116;-60
2023/10/01 07:13:43;;;;;;;10.60;5.65;;;;;;;;;;5036510;28;20078;-60
2023/10/01 07:16:08;;;;;;;10.13;5.90;;;;;;;;;;5031226;28;20053;-59
2023/10/01 07:18:37;;;;;;;9.40;6.75;;;;;;;;;;5029042;28;20021;-58
2023/10/01 07:21:06;;;;;;;11.15;6.18;;;;;;;;;;5030125;28;20501;-61
2023/10/01 07:23:31;;;;;;;10.88;6.28;;;;;;;;;;5034118;28;20396;-60
2023/10/01 07:26:00;;;;;;;10.43;6.18;;;;;;;;;;5045843;28;20245;-61
2023/10/01 07:28:25;;;;;;;12.15;6.78;;;;;;;;;;5041175;28;20033;-61
2023/10/01 07:30:56;;;;;;;13.10;6.72;;;;;;;;;;5042498;28;20519;-61
2023/10/01 07:33:22;;;;;;;11.80;6.78;;;;;;;;;;5037203;28;20028;-61
2023/10/01 07:35:58;;;;;;;10.30;6.53;;;;;;;;;;5038886;28;20106;-61
2023/10/01 07:38:25;;;;;;;10.45;6.78;;;;;;;;;;5035308;28;20400;-61
2023/10/01 07:40:57;;;;;;;9.65;6.85;;;;;;;;;;5016605;28;20158;-61
2023/10/01 07:43:22;;;;;;;10.13;6.30;;;;;;;;;;5038018;28;20040;-60
2023/10/01 07:45:55;;;;;;;10.75;6.28;;;;;;;;;;5033869;28;20099;-60
2023/10/01 07:48:23;;;;;;;11.65;7.25;;;;;;;;;;5050689;28;20139;-60
2023/10/01 07:50:48;;;;;;;10.88;7.13;;;;;;;;;;5032246;28;20076;-60
2023/10/01 07:53:13;;;;;;;11.55;6.85;;;;;;;;;;5035222;28;20413;-61
2023/10/01 07:55:38;;;;;;;12.33;6.73;;;;;;;;;;5041605;28;20037;-60
2023/10/01 08:01:32;;;;;;;12.57;7.35;;;;;;;;;;5019119;28;20315;-61
2023/10/01 08:03:55;;;;;;;11.27;7.10;;;;;;;;;;5032099;28;20520;-61
2023/10/01 08:06:30;;;;;;;13.30;7.50;;;;;;;;;;5032421;28;20979;-61
2023/10/01 08:09:08;;;;;;;13.82;7.43;;;;;;;;;;5032232;28;20037;-60
2023/10/01 08:14:20;;;;;;;12.65;7.07;;;;;;;;;;5033318;28;20554;-61
2023/10/01 08:16:48;;;;;;;11.82;7.60;;;;;;;;;;5046017;28;20074;-61
2023/10/01 08:19:22;;;;;;;11.07;7.30;;;;;;;;;;5031492;28;20559;-61
2023/10/01 08:21:50;;;;;;;10.20;7.38;;;;;;;;;;5031420;28;20065;-60
2023/10/01 08:24:18;;;;;;;13.60;7.72;;;;;;;;;;5038118;28;20037;-59
2023/10/01 08:26:57;;;;;;;12.30;8.10;;;;;;;;;;5033543;28;20091;-59
2023/10/01 08:29:29;;;;;;;13.55;7.55;;;;;;;;;;5033649;28;20056;-59
2023/10/01 08:34:22;;;;;;;12.48;7.82;;;;;;;;;;5033257;28;20061;-60
2023/10/01 08:36:49;;;;;;;13.05;7.78;;;;;;;;;;5031014;28;20114;-59
2023/10/01 08:39:20;;;;;;;12.68;7.38;;;;;;;;;;5031796;28;20102;-60
2023/10/01 08:41:56;;;;;;;13.23;7.65;;;;;;;;;;5036714;28;20057;-59
2023/10/01 08:44:33;;;;;;;11.50;7.35;;;;;;;;;;5029522;28;20048;-60
2023/10/01 08:47:21;;;;;;;12.25;7.40;;;;;;;;;;5029760;28;20497;-59
2023/10/01 08:49:47;;;;;;;13.30;7.88;;;;;;;;;;5032765;28;20493;-59
2023/10/01 08:52:19;;;;;;;15.93;7.72;;;;;;;;;;5038245;28;20037;-60
2023/10/01 08:54:44;;;;;;;11.57;7.20;;;;;;;;;;5036984;28;20033;-60
2023/10/01 08:57:17;;;;;;;13.18;7.57;;;;;;;;;;5031583;28;20038;-62
2023/10/01 08:59:43;;;;;;;16.23;7.75;;;;;;;;;;5028831;28;20051;-59
2023/10/01 09:02:15;;;;;;;12.05;7.07;;;;;;;;;;5012131;28;20103;-59
2023/10/01 09:04:48;;;;;;;14.48;7.63;;;;;;;;;;5030766;28;20571;-60
2023/10/01 09:07:18;;;;;;;10.82;7.45;;;;;;;;;;5019340;28;20114;-58
2023/10/01 09:10:05;;;;;;;11.32;7.10;;;;;;;;;;5029454;28;20099;-58
2023/10/01 09:12:30;;;;;;;14.60;7.05;;;;;;;;;;5025699;28;20908;-58
2023/10/01 09:14:56;;;;;;;10.82;6.60;;;;;;;;;;5034549;28;20036;-59
2023/10/01 09:17:24;;;;;;;13.20;7.03;;;;;;;;;;5029605;28;20037;-59
2023/10/01 09:19:50;;;;;;;10.20;6.10;;;;;;;;;;5030264;28;20485;-59
2023/10/01 09:22:16;;;;;;;14.90;6.82;;;;;;;;;;5029041;28;20049;-60
2023/10/01 09:24:55;;;;;;;11.60;7.05;;;;;;;;;;5031284;28;20055;-59
2023/10/01 09:27:28;;;;;;;13.05;6.72;;;;;;;;;;5028872;28;20053;-59
2023/10/01 09:30:27;;;;;;;11.80;6.93;;;;;;;;;;5030219;28;20155;-59
2023/10/01 09:32:56;;;;;;;12.40;6.78;;;;;;;;;;5029185;28;20095;-60
2023/10/01 09:35:30;;;;;;;11.10;6.35;;;;;;;;;;5034093;28;20075;-59
2023/10/01 09:38:10;;;;;;;14.00;6.53;;;;;;;;;;5030722;28;20134;-60
2023/10/01 09:40:38;;;;;;;12.23;7.40;;;;;;;;;;5034746;28;20059;-59
2023/10/01 09:43:04;;;;;;;13.70;7.70;;;;;;;;;;5047323;28;20136;-60
2023/10/01 09:45:34;;;;;;;15.43;7.95;;;;;;;;;;5030721;28;20056;-59
2023/10/01 09:48:04;;;;;;;16.33;8.63;;;;;;;;;;5028472;28;20040;-58
2023/10/01 09:50:41;;;;;;;14.13;8.30;;;;;;;;;;5030098;28;20402;-59
2023/10/01 09:53:13;;;;;;;14.70;8.77;;;;;;;;;;5033676;28;20029;-58
2023/10/01 09:55:47;;;;;;;14.73;7.72;;;;;;;;;;5029843;28;20024;-59
2023/10/01 09:58:20;;;;;;;14.82;8.23;;;;;;;;;;5012265;28;20057;-57
2023/10/01 10:00:47;;;;;;;13.23;7.53;;;;;;;;;;5029056;28;20045;-62
2023/10/01 10:03:12;;;;;;;12.52;7.45;;;;;;;;;;5028235;28;20099;-59
2023/10/01 10:05:40;;;;;;;11.47;7.27;;;;;;;;;;5027893;28;20259;-59
2023/10/01 10:08:15;;;;;;;11.70;6.82;;;;;;;;;;5030809;28;20287;-59
2023/10/01 10:10:50;;;;;;;14.70;6.50;;;;;;;;;;5030717;28;20033;-59
2023/10/01 10:13:45;;;;;;;14.13;6.45;;;;;;;;;;5027470;28;20535;-59
2023/10/01 10:16:32;;;;;;;12.45;6.65;;;;;;;;;;5022641;28;20041;-58
2023/10/01 10:19:08;;;;;;;13.20;6.38;;;;;;;;;;5019470;28;20025;-61
2023/10/01 10:22:16;;;;;;;12.75;6.13;;;;;;;;;;5035531;28;20095;-60
2023/10/01 10:24:40;;;;;;;10.65;5.78;;;;;;;;;;5031411;28;20054;-60
2023/10/01 10:27:09;;;;;;;11.30;5.82;;;;;;;;;;5047336;28;20021;-60
2023/10/01 10:29:46;;;;;;;12.38;6.47;;;;;;;;;;5035289;28;20013;-60
2023/10/01 10:32:12;;;;;;;11.35;6.00;;;;;;;;;;5043824;28;20057;-60
2023/10/01 10:34:47;;;;;;;9.73;6.63;;;;;;;;;;5038082;28;20103;-60
2023/10/01 10:37:33;;;;;;;11.80;6.55;;;;;;;;;;5039194;28;20040;-60
2023/10/01 10:40:22;;;;;;;9.30;6.72;;;;;;;;;;5036190;28;20493;-60
2023/10/01 10:42:47;;;;;;;10.10;6.15;;;;;;;;;;5040415;28;20053;-60
2023/10/01 10:45:21;;;;;;;11.85;6.45;;;;;;;;;;5046025;28;20029;-60
2023/10/01 10:47:58;;;;;;;10.25;6.55;;;;;;;;;;5037891;28;20033;-59
2023/10/01 10:50:44;;;;;;;11.13;6.13;;;;;;;;;;5038666;28;20140;-60
2023/10/01 10:53:19;;;;;;;11.07;6.50;;;;;;;;;;5035663;28;20073;-60
2023/10/01 10:56:02;;;;;;;12.07;6.35;;;;;;;;;;5015688;28;22220;-60
2023/10/01 10:58:40;;;;;;;10.20;6.20;;;;;;;;;;5033823;28;20052;-61
2023/10/01 11:01:22;;;;;;;11.90;6.60;;;;;;;;;;5034660;28;20041;-61
2023/10/01 11:03:54;;;;;;;10.60;6.38;;;;;;;;;;5034765;28;20081;-60
2023/10/01 11:07:01;;;;;;;11.40;6.28;;;;;;;;;;5037086;28;20493;-60
2023/10/01 11:09:26;;;;;;;11.77;6.63;;;;;;;;;;5034036;28;20076;-60
2023/10/01 11:11:52;;;;;;;10.30;7.03;;;;;;;;;;5039380;28;20152;-59
2023/10/01 11:14:18;;;;;;;11.07;6.60;;;;;;;;;;5033533;28;20041;-59
2023/10/01 11:16:44;;;;;;;12.18;6.97;;;;;;;;;;5035037;28;20590;-59
2023/10/01 11:19:13;;;;;;;11.02;6.82;;;;;;;;;;5035221;28;20041;-59
2023/10/01 11:21:48;;;;;;;10.75;6.82;;;;;;;;;;5035046;28;20123;-60
2023/10/01 11:24:13;;;;;;;9.65;6.05;;;;;;;;;;5034403;28;20042;-59
2023/10/01 11:26:59;;;;;;;11.87;6.77;;;;;;;;;;5034876;28;20032;-60
2023/10/01 11:29:24;;;;;;;11.32;6.82;;;;;;;;;;5033814;28;20311;-59
2023/10/01 11:31:50;;;;;;;11.93;7.20;;;;;;;;;;5033831;28;20036;-60
2023/10/01 11:34:30;;;;;;;11.15;6.60;;;;;;;;;;5033420;28;20356;-60
2023/10/01 11:36:57;;;;;;;12.90;7.13;;;;;;;;;;5034084;28;20441;-60
2023/10/01 11:39:38;;;;;;;10.35;6.63;;;;;;;;;;5036737;28;20052;-61
2023/10/01 11:42:19;;;;;;;12.82;7.28;;;;;;;;;;5034905;28;20089;-60
2023/10/01 11:44:44;;;;;;;12.02;6.30;;;;;;;;;;5037120;28;20084;-60
2023/10/01 11:50:06;;;;;;;10.77;6.03;;;;;;;;;;5033377;28;20413;-60
2023/10/01 11:52:32;;;;;;;11.52;6.90;;;;;;;;;;5033084;28;20052;-61
2023/10/01 11:54:57;;;;;;;12.27;6.93;;;;;;;;;;5033210;28;20180;-60
2023/10/01 11:57:23;;;;;;;12.57;6.83;;;;;;;;;;5032659;28;20120;-60
2023/10/01 11:59:55;;;;;;;13.60;7.22;;;;;;;;;;5032618;28;20295;-59
2023/10/01 12:02:25;;;;;;;12.25;6.35;;;;;;;;;;5031708;28;20052;-60
2023/10/01 12:05:00;;;;;;;12.38;6.40;;;;;;;;;;5030837;28;20041;-60
2023/10/01 12:07:27;;;;;;;13.13;6.70;;;;;;;;;;5032386;28;20099;-61
2023/10/01 12:09:55;;;;;;;10.90;7.18;;;;;;;;;;5036056;28;20041;-60
2023/10/01 12:12:57;;;;;;;11.07;6.85;;;;;;;;;;5032688;28;20045;-61
2023/10/01 12:15:34;;;;;;;12.98;6.80;;;;;;;;;;5032658;28;20124;-59
2023/10/01 12:18:07;;;;;;;12.10;6.25;;;;;;;;;;5034743;28;20707;-61
2023/10/01 12:20:32;;;;;;;11.50;6.78;;;;;;;;;;5033455;28;20045;-58
2023/10/01 12:23:19;;;;;;;10.57;6.45;;;;;;;;;;5032624;28;20438;-57
2023/10/01 12:25:58;;;;;;;11.80;6.65;;;;;;;;;;5031296;28;20444;-59
2023/10/01 12:28:29;;;;;;;10.82;6.03;;;;;;;;;;5031001;28;20041;-59
2023/10/01 12:30:58;;;;;;;9.77;6.15;;;;;;;;;;5033044;28;20033;-60
2023/10/01 12:33:46;;;;;;;11.63;6.97;;;;;;;;;;5031515;28;20543;-61
2023/10/01 12:39:27;;;;;;;11.02;6.53;;;;;;;;;;5032004;28;20084;-59
2023/10/01 12:41:56;;;;;;;11.30;6.88;;;;;;;;;;5035222;28;20049;-58
2023/10/01 12:46:54;;;;;;;10.32;6.18;;;;;;;;;;5035557;28;20041;-57
2023/10/01 12:49:20;;;;;;;12.50;6.55;;;;;;;;;;5037240;28;20044;-62
2023/10/01 12:51:54;;;;;;;12.48;6.88;;;;;;;;;;5036510;28;20044;-57
2023/10/01 12:54:25;;;;;;;11.70;6.72;;;;;;;;;;5034648;28;20033;-56
2023/10/01 12:57:03;;;;;;;10.60;6.78;;;;;;;;;;5033487;28;20027;-57
2023/10/01 12:59:41;;;;;;;12.57;6.60;;;;;;;;;;5031053;28;20045;-56
2023/10/01 13:02:22;;;;;;;12.48;6.70;;;;;;;;;;5033970;28;20049;-57
2023/10/01 13:07:42;;;;;;;12.27;7.00;;;;;;;;;;5030770;28;20468;-57
2023/10/01 13:10:08;;;;;;;13.05;7.55;;;;;;;;;;5029762;28;20114;-57
2023/10/01 13:12:57;;;;;;;15.45;7.55;;;;;;;;;;5031819;28;20457;-57
2023/10/01 13:15:30;;;;;;;11.48;7.20;;;;;;;;;;5033147;28;20519;-58
2023/10/01 13:18:00;;;;;;;10.55;7.35;;;;;;;;;;5029081;28;20187;-58
2023/10/01 13:20:29;;;;;;;14.20;7.57;;;;;;;;;;5035462;28;20092;-58
2023/10/01 13:23:06;;;;;;;12.93;8.05;;;;;;;;;;5031557;28;20040;-56
2023/10/01 13:25:36;;;;;;;11.93;7.75;;;;;;;;;;5029306;28;20045;-56
2023/10/01 13:28:01;;;;;;;;;;;;;;;;;;5036749;28;20041;-56
2023/10/01 13:30:30;;;;;;;13.63;8.80;;;;;;;;;;5029522;28;19937;-57
2023/10/01 13:33:14;;;;;;;16.95;8.57;;;;;;;;;;5027303;28;20036;-57
2023/10/01 13:35:58;;;;;;;12.65;7.90;;;;;;;;;;5027321;28;20052;-58
2023/10/01 13:38:27;;;;;;;13.48;7.78;;;;;;;;;;5032039;28;20113;-57
2023/10/01 14:08:44;;;;;;;14.98;9.15;;;;;;;;;;4992971;28;20530;-54
2023/10/01 14:11:09;;;;;;;13.60;8.70;;;;;;;;;;4993108;28;20474;-55
2023/10/01 14:13:35;;;;;;;13.52;8.40;;;;;;;;;;5004273;28;20049;-53
2023/10/01 14:19:13;;;;;;;14.75;8.73;;;;;;;;;;4998914;28;20041;-53
2023/10/01 14:21:38;;;;;;;13.95;8.95;;;;;;;;;;4996452;28;20141;-53
2023/10/01 14:24:23;;;;;;;16.92;8.70;;;;;;;;;;4994019;28;20049;-53
2023/10/01 14:26:50;;;;;;;12.25;8.88;;;;;;;;;;4994348;28;20414;-54
2023/10/01 14:29:22;;;;;;;13.93;9.40;;;;;;;;;;4989376;28;20030;-54
2023/10/01 14:31:51;;;;;;;13.50;8.52;;;;;;;;;;4992506;28;20037;-53
2023/10/01 14:34:20;;;;;;;15.33;9.90;;;;;;;;;;5006523;28;20430;-54
2023/10/01 14:36:51;;;;;;;14.40;9.60;;;;;;;;;;4994683;28;20120;-56
2023/10/01 14:39:18;;;;;;;12.82;9.05;;;;;;;;;;5008535;28;20553;-55
2023/10/01 14:41:45;;;;;;;13.73;9.30;;;;;;;;;;4993592;28;20397;-53
2023/10/01 14:44:12;;;;;;;13.63;9.80;;;;;;;;;;4994427;28;20068;-53
2023/10/01 14:46:40;;;;;;;15.05;9.40;;;;;;;;;;4993223;28;20034;-55
2023/10/01 14:49:06;;;;;;;16.58;9.32;;;;;;;;;;4993777;28;20196;-55
2023/10/01 14:51:32;;;;;;;13.98;9.57;;;;;;;;;;4993620;28;20030;-54
2023/10/01 14:53:57;;;;;;;17.02;9.85;;;;;;;;;;5008863;28;20112;-52
2023/10/01 14:56:23;;;;;;;14.52;9.60;;;;;;;;;;4995187;28;20498;-53
2023/10/01 14:58:51;;;;;;;12.90;9.27;;;;;;;;;;4993434;28;20502;-53
2023/10/01 15:01:19;;;;;;;13.63;9.77;;;;;;;;;;4995291;28;20455;-54
2023/10/01 15:03:53;;;;;;;13.32;9.38;;;;;;;;;;5008159;28;20061;-52
2023/10/01 15:06:18;;;;;;;12.25;9.10;;;;;;;;;;4992465;28;20030;-55
2023/10/01 15:08:44;;;;;;;17.58;10.02;;;;;;;;;;5008283;28;20611;-55
2023/10/01 15:11:12;;;;;;;14.52;10.68;;;;;;;;;;4993601;28;20034;-56
2023/10/01 15:13:47;;;;;;;14.30;10.00;;;;;;;;;;4992531;28;20506;-56
2023/10/01 15:16:13;;;;;;;13.80;9.75;;;;;;;;;;4993429;28;20034;-54
2023/10/01 15:18:40;;;;;;;15.75;9.68;;;;;;;;;;5007621;28;20265;-53
2023/10/01 15:21:19;;;;;;;16.92;10.77;;;;;;;;;;4991725;28;20057;-54
2023/10/01 15:23:45;;;;;;;14.70;10.52;;;;;;;;;;4993615;28;20117;-54
2023/10/01 15:26:11;;;;;;;14.45;10.18;;;;;;;;;;5007733;28;20054;-54
2023/10/01 15:28:37;;;;;;;15.80;10.35;;;;;;;;;;5006673;28;20038;-52
2023/10/01 15:31:02;;;;;;;15.40;10.82;;;;;;;;;;4992501;28;20041;-53
2023/10/01 15:33:27;;;;;;;16.73;11.30;;;;;;;;;;5008020;28;20058;-53
2023/10/01 15:35:53;;;;;;;15.10;11.07;;;;;;;;;;4993284;28;20042;-54
2023/10/01 15:38:27;;;;;;;14.98;11.85;;;;;;;;;;4992616;28;20120;-52
2023/10/01 15:40:56;;;;;;;15.80;10.98;;;;;;;;;;4993474;28;20141;-54
2023/10/01 15:43:21;;;;;;;19.75;11.38;;;;;;;;;;4993791;28;20038;-55
2023/10/01 15:45:47;;;;;;;19.08;12.25;;;;;;;;;;4993125;28;20041;-53
2023/10/01 15:48:17;;;;;;;20.10;11.60;;;;;;;;;;5006562;28;20046;-53
2023/10/01 15:50:43;;;;;;;17.70;11.95;;;;;;;;;;4990378;28;20111;-54
2023/10/01 15:53:17;;;;;;;21.90;12.88;;;;;;;;;;4988382;28;20025;-54
2023/10/01 15:55:55;;;;;;;17.00;11.80;;;;;;;;;;4991232;28;20022;-55
2023/10/01 15:58:24;;;;;;;17.92;11.68;;;;;;;;;;4992242;28;20187;-53
2023/10/01 16:00:49;;;;;;;16.70;12.43;;;;;;;;;;4990399;28;20416;-53